Time;durP1;ratioP1;P1;durP2;ratioP2;P2;SDS_P1;SDS_P2;PMS_P1;PMS_P2;Temp;Humidity;BMP_temperature;BMP_pressure;BME280_temperature;BME280_humidity;BME280_pressure;Samples;Min_cycle;Max_cycle;Signal;HPM_P1;HPM_P2
2022/01/17 00:02:19;;;;;;;88.50;38.83;;;6.10;99.90;;;;;;5034417;28;20218;-71
2022/01/17 00:04:45;;;;;;;92.63;39.07;;;6.10;99.90;;;;;;5033970;28;20201;-71
2022/01/17 00:07:11;;;;;;;92.43;39.70;;;6.20;99.90;;;;;;5035171;28;20210;-71
2022/01/17 00:09:37;;;;;;;92.47;38.20;;;6.20;99.90;;;;;;5035157;28;20201;-71
2022/01/17 00:12:02;;;;;;;95.37;40.33;;;6.20;99.90;;;;;;5034753;28;20561;-71
2022/01/17 00:14:34;;;;;;;99.13;39.50;;;6.30;99.90;;;;;;5034761;28;20189;-71
2022/01/17 00:17:38;;;;;;;96.67;39.90;;;6.30;99.90;;;;;;5034337;28;20296;-71
2022/01/17 00:19:56;;;;;;;90.67;39.00;;;6.20;99.90;;;;;;5034561;28;20185;-71
2022/01/17 00:22:23;;;;;;;94.37;40.00;;;6.20;99.90;;;;;;5034680;28;20198;-71
2022/01/17 00:24:50;;;;;;;98.13;41.53;;;6.20;99.90;;;;;;5034889;28;20252;-71
2022/01/17 00:27:16;;;;;;;92.57;40.27;;;6.30;99.90;;;;;;5034480;28;20222;-72
2022/01/17 00:29:42;;;;;;;101.60;40.47;;;6.30;99.90;;;;;;5033259;28;20216;-71
2022/01/17 00:32:07;;;;;;;92.23;39.93;;;6.40;99.90;;;;;;5034112;28;20185;-71
2022/01/17 00:34:33;;;;;;;86.20;39.10;;;6.40;99.90;;;;;;5034585;28;20635;-70
2022/01/17 00:36:59;;;;;;;90.80;40.10;;;6.30;99.90;;;;;;5034593;28;20177;-70
2022/01/17 00:39:25;;;;;;;91.37;39.60;;;6.20;99.90;;;;;;5034457;28;20178;-71
2022/01/17 00:41:51;;;;;;;94.57;40.50;;;6.20;99.90;;;;;;5034186;28;20169;-70
2022/01/17 00:44:21;;;;;;;94.53;38.60;;;6.20;99.90;;;;;;5033661;28;20268;-71
2022/01/17 00:46:49;;;;;;;90.50;40.13;;;6.30;99.90;;;;;;5034034;28;20332;-72
2022/01/17 00:49:15;;;;;;;87.70;38.97;;;6.30;99.90;;;;;;5034441;28;20269;-71
2022/01/17 00:51:40;;;;;;;87.17;37.67;;;6.30;99.90;;;;;;5034166;28;20217;-70
2022/01/17 00:54:06;;;;;;;86.53;39.20;;;6.40;99.90;;;;;;5034106;28;20166;-71
2022/01/17 00:56:32;;;;;;;86.70;39.87;;;6.30;99.90;;;;;;5034089;28;20205;-70
2022/01/17 00:58:57;;;;;;;93.43;38.70;;;6.40;99.90;;;;;;5033766;28;20170;-71
2022/01/17 01:01:23;;;;;;;90.23;39.50;;;6.30;99.90;;;;;;5033559;28;20582;-71
2022/01/17 01:03:49;;;;;;;89.27;39.30;;;6.20;99.90;;;;;;5033950;28;20246;-71
2022/01/17 01:06:15;;;;;;;85.30;39.77;;;6.30;99.90;;;;;;5033805;28;20178;-70
2022/01/17 01:08:40;;;;;;;91.07;39.90;;;6.40;99.90;;;;;;5033887;28;20182;-71
2022/01/17 01:11:06;;;;;;;90.43;40.57;;;6.40;99.90;;;;;;5033915;28;20248;-70
2022/01/17 01:13:32;;;;;;;87.17;37.43;;;6.50;99.90;;;;;;5033519;28;20625;-70
2022/01/17 01:28:54;;;;;;;83.13;37.63;;;6.40;99.90;;;;;;5033354;28;20213;-71
2022/01/17 01:31:31;;;;;;;74.73;35.00;;;6.40;99.90;;;;;;5033546;28;20174;-70
2022/01/17 01:34:03;;;;;;;79.57;37.53;;;6.30;99.90;;;;;;5033368;28;20177;-69
2022/01/17 01:36:29;;;;;;;84.17;37.43;;;6.30;99.90;;;;;;5033888;28;20177;-70
2022/01/17 01:38:55;;;;;;;77.33;35.27;;;6.30;99.90;;;;;;5033426;28;20576;-71
2022/01/17 01:41:21;;;;;;;82.17;37.83;;;6.30;99.90;;;;;;5033512;28;20600;-71
2022/01/17 01:43:47;;;;;;;76.63;36.77;;;6.30;99.90;;;;;;5032891;28;20245;-71
2022/01/17 01:46:17;;;;;;;80.17;36.30;;;6.20;99.90;;;;;;5033272;28;20251;-70
2022/01/17 01:48:43;;;;;;;82.20;37.60;;;6.30;99.90;;;;;;5033160;28;20188;-70
2022/01/17 01:51:09;;;;;;;86.63;37.27;;;6.30;99.90;;;;;;5033470;28;20173;-70
2022/01/17 01:53:36;;;;;;;80.67;36.97;;;6.30;99.90;;;;;;5033280;28;20181;-71
2022/01/17 01:56:02;;;;;;;79.97;36.33;;;6.40;99.90;;;;;;5032023;28;20625;-71
2022/01/17 01:58:28;;;;;;;74.03;37.20;;;6.40;99.90;;;;;;5032907;28;20178;-70
2022/01/17 02:00:54;;;;;;;82.50;37.63;;;6.40;99.90;;;;;;5033339;28;20184;-70
2022/01/17 02:03:21;;;;;;;77.93;36.63;;;6.50;99.90;;;;;;5032743;28;20216;-70
2022/01/17 02:05:47;;;;;;;77.53;35.83;;;6.50;99.90;;;;;;5033260;28;20279;-72
2022/01/17 02:08:14;;;;;;;76.20;36.53;;;6.40;99.90;;;;;;5031963;28;20185;-70
2022/01/17 02:10:40;;;;;;;76.60;36.27;;;6.50;99.90;;;;;;5033098;28;20642;-69
2022/01/17 02:13:06;;;;;;;71.70;36.57;;;6.40;99.90;;;;;;5032545;28;20170;-70
2022/01/17 02:15:32;;;;;;;77.97;36.23;;;6.30;99.90;;;;;;5033046;28;20201;-70
2022/01/17 02:17:58;;;;;;;79.23;36.67;;;6.30;99.90;;;;;;5033065;28;20208;-70
2022/01/17 02:20:41;;;;;;;77.07;37.77;;;6.40;99.90;;;;;;5032882;28;20178;-70
2022/01/17 02:23:08;;;;;;;71.87;36.37;;;6.40;99.90;;;;;;5032883;28;20216;-70
2022/01/17 02:25:34;;;;;;;79.07;37.03;;;6.40;99.90;;;;;;5032419;28;20217;-71
2022/01/17 02:28:01;;;;;;;81.93;37.00;;;6.30;99.90;;;;;;5032606;28;20257;-70
2022/01/17 02:30:31;;;;;;;78.90;36.80;;;6.40;99.90;;;;;;5032861;28;20220;-70
2022/01/17 02:32:58;;;;;;;75.73;36.80;;;6.40;99.90;;;;;;5032683;28;20209;-70
2022/01/17 02:35:25;;;;;;;79.87;38.27;;;6.40;99.90;;;;;;5033042;28;20198;-70
2022/01/17 02:37:52;;;;;;;75.07;37.30;;;6.40;99.90;;;;;;5033017;28;20177;-71
2022/01/17 02:40:19;;;;;;;81.73;38.50;;;6.50;99.90;;;;;;5032808;28;20174;-70
2022/01/17 02:43:01;;;;;;;77.70;37.57;;;6.50;99.90;;;;;;5031997;28;20213;-70
2022/01/17 02:46:24;;;;;;;74.30;37.07;;;6.50;99.90;;;;;;5032724;28;20165;-71
2022/01/17 02:48:24;;;;;;;76.77;37.53;;;6.50;99.90;;;;;;5032499;28;20669;-70
2022/01/17 02:50:50;;;;;;;79.63;37.80;;;6.60;99.90;;;;;;5032763;28;20174;-70
2022/01/17 02:53:17;;;;;;;72.73;35.87;;;6.60;99.90;;;;;;5032405;28;20170;-71
2022/01/17 02:55:57;;;;;;;75.23;36.57;;;6.70;99.90;;;;;;5032228;28;20174;-71
2022/01/17 02:58:25;;;;;;;71.50;36.60;;;6.60;99.90;;;;;;5032742;28;20169;-70
2022/01/17 03:00:54;;;;;;;69.47;35.47;;;6.60;99.90;;;;;;5032708;28;20616;-70
2022/01/17 03:03:21;;;;;;;70.97;36.30;;;6.60;99.90;;;;;;5032359;28;20214;-70
2022/01/17 03:05:52;;;;;;;75.70;36.37;;;6.60;99.90;;;;;;5032453;28;20170;-71
2022/01/17 03:08:22;;;;;;;82.57;37.80;;;6.70;99.90;;;;;;5035581;28;20177;-71
2022/01/17 03:10:48;;;;;;;75.10;36.70;;;6.80;99.90;;;;;;5035768;28;20170;-71
2022/01/17 03:13:16;;;;;;;70.60;36.70;;;6.60;99.90;;;;;;5036194;28;20180;-70
2022/01/17 03:15:47;;;;;;;70.77;36.00;;;6.60;99.90;;;;;;5036063;28;20220;-71
2022/01/17 03:18:13;;;;;;;71.17;35.27;;;6.60;99.90;;;;;;5035979;28;20169;-70
2022/01/17 03:20:39;;;;;;;71.10;35.83;;;6.60;99.90;;;;;;5036027;28;20178;-71
2022/01/17 03:23:10;;;;;;;75.37;37.67;;;6.60;99.90;;;;;;5035633;28;20214;-70
2022/01/17 03:25:36;;;;;;;65.87;34.53;;;6.50;99.90;;;;;;5035051;28;20588;-70
2022/01/17 03:28:03;;;;;;;72.20;37.93;;;6.50;99.90;;;;;;5036027;28;20170;-70
2022/01/17 03:30:31;;;;;;;72.23;37.17;;;6.50;99.90;;;;;;5035772;28;20169;-70
2022/01/17 03:32:56;;;;;;;73.80;37.07;;;6.60;99.90;;;;;;5035404;28;20209;-71
2022/01/17 03:35:22;;;;;;;74.67;38.43;;;6.60;99.90;;;;;;5034877;28;20177;-70
2022/01/17 03:37:48;;;;;;;70.20;36.07;;;6.60;99.90;;;;;;5035556;28;20170;-71
2022/01/17 03:40:14;;;;;;;69.93;35.73;;;6.60;99.90;;;;;;5035037;28;20503;-70
2022/01/17 03:42:40;;;;;;;75.13;37.27;;;6.60;99.90;;;;;;5035492;28;20209;-70
2022/01/17 03:45:07;;;;;;;70.47;35.03;;;6.60;99.90;;;;;;5035409;28;20181;-70
2022/01/17 03:47:42;;;;;;;68.20;35.60;;;6.70;99.90;;;;;;5035083;28;20201;-71
2022/01/17 03:50:12;;;;;;;70.33;35.80;;;6.80;99.90;;;;;;5035287;28;20235;-69
2022/01/17 03:52:41;;;;;;;73.60;36.80;;;6.70;99.90;;;;;;5034922;28;20302;-70
2022/01/17 03:55:12;;;;;;;67.83;34.60;;;6.70;99.90;;;;;;5034752;28;20166;-70
2022/01/17 03:57:38;;;;;;;67.80;34.97;;;6.60;99.90;;;;;;5034038;28;20174;-70
2022/01/17 04:00:09;;;;;;;71.83;34.93;;;6.60;99.90;;;;;;5035115;28;20170;-70
2022/01/17 04:02:35;;;;;;;68.17;34.80;;;6.70;99.90;;;;;;5035058;28;20209;-70
2022/01/17 04:05:00;;;;;;;73.40;35.00;;;6.60;99.90;;;;;;5035214;28;20688;-71
2022/01/17 04:07:26;;;;;;;68.87;35.07;;;6.50;99.90;;;;;;5035062;28;20178;-71
2022/01/17 04:09:51;;;;;;;69.13;36.63;;;6.50;99.90;;;;;;5034771;28;20578;-70
2022/01/17 04:12:17;;;;;;;69.57;35.30;;;6.60;99.90;;;;;;5034616;28;20583;-70
2022/01/17 04:14:43;;;;;;;69.27;35.37;;;6.60;99.90;;;;;;5034738;28;20185;-70
2022/01/17 04:17:08;;;;;;;68.73;34.50;;;6.50;99.90;;;;;;5034865;28;20185;-70
2022/01/17 04:19:34;;;;;;;63.43;34.60;;;6.60;99.90;;;;;;5034024;28;20178;-70
2022/01/17 04:22:01;;;;;;;68.03;35.30;;;6.50;99.90;;;;;;5033903;28;20630;-70
2022/01/17 04:24:26;;;;;;;69.83;35.20;;;6.60;99.90;;;;;;5034265;28;20189;-70
2022/01/17 04:26:52;;;;;;;68.60;34.87;;;6.70;99.90;;;;;;5034459;28;20218;-70
2022/01/17 04:29:20;;;;;;;73.90;36.93;;;6.60;99.90;;;;;;5034659;28;20178;-71
2022/01/17 04:31:46;;;;;;;66.43;35.33;;;6.60;99.90;;;;;;5034372;28;20182;-70
2022/01/17 04:34:12;;;;;;;67.03;34.07;;;6.60;99.90;;;;;;5034184;28;20184;-70
2022/01/17 04:36:37;;;;;;;67.60;36.57;;;6.60;99.90;;;;;;5034156;28;20170;-71
2022/01/17 04:39:03;;;;;;;74.07;36.07;;;6.60;99.90;;;;;;5033908;28;20209;-71
2022/01/17 04:41:37;;;;;;;68.77;36.07;;;6.70;99.90;;;;;;5034051;28;20630;-71
2022/01/17 04:46:50;;;;;;;66.33;35.33;;;6.70;99.90;;;;;;5043042;28;20198;-71
2022/01/17 04:49:15;;;;;;;69.10;36.17;;;6.70;99.90;;;;;;5034157;28;20269;-71
2022/01/17 04:51:41;;;;;;;76.20;36.27;;;6.60;99.90;;;;;;5033369;28;20520;-70
2022/01/17 04:54:29;;;;;;;70.23;35.80;;;6.60;99.90;;;;;;5033852;28;20173;-70
2022/01/17 04:56:53;;;;;;;68.80;35.57;;;6.70;99.90;;;;;;5032894;28;20268;-70
2022/01/17 04:59:18;;;;;;;70.77;36.03;;;6.70;99.90;;;;;;5033840;28;20620;-70
2022/01/17 05:01:44;;;;;;;68.53;36.50;;;6.70;99.90;;;;;;5033804;28;20634;-71
2022/01/17 05:04:10;;;;;;;76.10;37.73;;;6.60;99.90;;;;;;5033423;28;20681;-70
2022/01/17 05:06:35;;;;;;;72.97;38.37;;;6.60;99.90;;;;;;5033088;28;20177;-71
2022/01/17 05:09:02;;;;;;;75.60;37.10;;;6.60;99.90;;;;;;5032473;28;20177;-71
2022/01/17 05:11:30;;;;;;;74.83;37.20;;;6.60;99.90;;;;;;5033294;28;20330;-71
2022/01/17 05:13:56;;;;;;;78.10;38.27;;;6.70;99.90;;;;;;5033333;28;20182;-71
2022/01/17 05:16:24;;;;;;;74.00;37.73;;;6.80;99.90;;;;;;5033670;28;20181;-70
2022/01/17 05:21:34;;;;;;;82.30;38.60;;;6.90;99.90;;;;;;5032980;28;20534;-71
2022/01/17 05:23:59;;;;;;;76.97;37.97;;;6.90;99.90;;;;;;5032881;28;20209;-70
2022/01/17 05:26:25;;;;;;;81.77;38.47;;;6.80;99.90;;;;;;5032711;28;20367;-72
2022/01/17 05:28:50;;;;;;;85.07;38.93;;;6.80;99.90;;;;;;5033207;28;20172;-71
2022/01/17 05:31:16;;;;;;;86.20;38.40;;;6.80;99.90;;;;;;5033055;28;20177;-70
2022/01/17 05:33:42;;;;;;;86.53;37.60;;;6.80;99.90;;;;;;5033033;28;20645;-71
2022/01/17 05:36:08;;;;;;;85.87;39.23;;;6.60;99.90;;;;;;5032496;28;20178;-70
2022/01/17 05:38:33;;;;;;;79.97;38.70;;;6.70;99.90;;;;;;5033401;28;20166;-71
2022/01/17 05:40:59;;;;;;;81.30;38.33;;;6.70;99.90;;;;;;5033034;28;20178;-71
2022/01/17 05:43:24;;;;;;;80.13;38.63;;;6.70;99.90;;;;;;5033094;28;20236;-70
2022/01/17 05:45:50;;;;;;;84.37;38.80;;;6.70;99.90;;;;;;5032429;28;20201;-72
2022/01/17 05:48:15;;;;;;;82.97;40.80;;;6.70;99.90;;;;;;5030764;28;20190;-71
2022/01/17 05:50:41;;;;;;;85.67;39.03;;;6.70;99.90;;;;;;5031975;28;20170;-71
2022/01/17 05:53:07;;;;;;;80.63;39.63;;;6.60;99.90;;;;;;5032129;28;20565;-71
2022/01/17 05:55:32;;;;;;;73.97;37.50;;;6.60;99.90;;;;;;5032094;28;20170;-70
2022/01/17 05:57:59;;;;;;;86.00;40.70;;;6.70;99.90;;;;;;5032455;28;20273;-71
2022/01/17 06:00:25;;;;;;;87.30;41.40;;;6.70;99.90;;;;;;5032468;28;20184;-72
2022/01/17 06:02:51;;;;;;;88.83;41.80;;;6.70;99.90;;;;;;5031958;28;20205;-72
2022/01/17 06:05:16;;;;;;;94.10;40.80;;;6.70;99.90;;;;;;5031993;28;20169;-70
2022/01/17 06:07:42;;;;;;;89.47;40.97;;;6.80;99.90;;;;;;5032557;28;20199;-71
2022/01/17 06:10:08;;;;;;;89.03;42.53;;;6.80;99.90;;;;;;5032385;28;20530;-71
2022/01/17 06:12:33;;;;;;;89.03;42.20;;;6.90;99.90;;;;;;5031851;28;20473;-71
2022/01/17 06:14:59;;;;;;;96.77;43.43;;;6.90;99.90;;;;;;5032458;28;20613;-71
2022/01/17 06:17:25;;;;;;;101.37;43.00;;;6.90;99.90;;;;;;5031847;28;20170;-71
2022/01/17 06:19:50;;;;;;;101.67;43.20;;;7.00;99.90;;;;;;5031750;28;20215;-70
2022/01/17 06:22:16;;;;;;;96.93;44.30;;;7.00;99.90;;;;;;5030016;28;20569;-71
2022/01/17 06:24:41;;;;;;;97.90;42.53;;;7.00;99.90;;;;;;5031667;28;20166;-72
2022/01/17 06:27:07;;;;;;;92.77;43.07;;;6.90;99.90;;;;;;5032211;28;20217;-71
2022/01/17 06:29:33;;;;;;;94.10;44.77;;;7.00;99.90;;;;;;5031603;28;20553;-70
2022/01/17 06:31:59;;;;;;;102.07;45.20;;;7.00;99.90;;;;;;5031460;28;20229;-70
2022/01/17 06:34:25;;;;;;;100.47;44.20;;;7.00;99.90;;;;;;5031871;28;20202;-71
2022/01/17 06:36:51;;;;;;;100.77;44.53;;;7.10;99.90;;;;;;5031709;28;20606;-71
2022/01/17 06:39:16;;;;;;;98.87;44.93;;;7.20;99.90;;;;;;5032340;28;20578;-71
2022/01/17 06:41:42;;;;;;;90.63;43.53;;;7.20;99.90;;;;;;5031682;28;20185;-71
2022/01/17 06:44:08;;;;;;;99.27;46.13;;;7.20;99.90;;;;;;5035640;28;20209;-71
2022/01/17 06:46:34;;;;;;;90.00;42.13;;;7.20;99.90;;;;;;5034904;28;20197;-71
2022/01/17 06:48:59;;;;;;;90.47;44.13;;;7.20;99.90;;;;;;5035123;28;20228;-72
2022/01/17 06:51:25;;;;;;;94.23;44.40;;;7.20;99.90;;;;;;5034184;28;20170;-72
2022/01/17 06:53:51;;;;;;;96.03;45.63;;;7.30;99.90;;;;;;5035825;28;20172;-71
2022/01/17 06:56:17;;;;;;;90.00;44.13;;;7.40;99.90;;;;;;5034596;28;20174;-72
2022/01/17 06:58:44;;;;;;;92.10;45.70;;;7.40;99.90;;;;;;5033589;28;20253;-71
2022/01/17 07:01:10;;;;;;;90.73;44.33;;;7.40;99.90;;;;;;5034868;28;20186;-72
2022/01/17 07:03:36;;;;;;;88.23;43.67;;;7.40;99.90;;;;;;5034937;28;20243;-71
2022/01/17 07:06:02;;;;;;;86.30;44.07;;;7.30;99.90;;;;;;5034080;28;20182;-71
2022/01/17 07:08:28;;;;;;;85.43;44.23;;;7.30;99.90;;;;;;5035281;28;20189;-70
2022/01/17 07:10:54;;;;;;;89.83;45.83;;;7.40;99.90;;;;;;5034184;28;20230;-70
2022/01/17 07:13:19;;;;;;;84.97;43.87;;;7.40;99.90;;;;;;5035038;28;20170;-72
2022/01/17 07:15:45;;;;;;;90.17;45.17;;;7.40;99.90;;;;;;5034617;28;20278;-71
2022/01/17 07:18:12;;;;;;;91.40;45.87;;;7.40;99.90;;;;;;5034746;28;20274;-71
2022/01/17 07:20:38;;;;;;;87.47;45.07;;;7.40;99.90;;;;;;5034738;28;20185;-71
2022/01/17 07:23:04;;;;;;;86.17;41.93;;;7.50;99.90;;;;;;5034842;28;20666;-72
2022/01/17 07:25:30;;;;;;;85.43;44.53;;;7.50;99.90;;;;;;5034555;28;20218;-71
2022/01/17 07:27:56;;;;;;;79.07;43.30;;;7.50;99.90;;;;;;5034333;28;20260;-72
2022/01/17 07:30:23;;;;;;;79.50;42.97;;;7.50;99.90;;;;;;5034277;28;20220;-71
2022/01/17 07:32:49;;;;;;;75.53;42.97;;;7.60;99.90;;;;;;5033435;28;20656;-72
2022/01/17 07:35:15;;;;;;;84.80;44.03;;;7.70;99.90;;;;;;5034234;28;20256;-71
2022/01/17 07:37:40;;;;;;;78.17;43.27;;;7.60;99.90;;;;;;5034933;28;20174;-72
2022/01/17 07:40:07;;;;;;;82.47;42.63;;;7.50;99.90;;;;;;5034260;28;20178;-71
2022/01/17 07:42:33;;;;;;;82.50;43.07;;;7.50;99.90;;;;;;5032535;28;20289;-72
2022/01/17 07:45:08;;;;;;;75.50;41.87;;;7.50;99.90;;;;;;5033995;28;20371;-72
2022/01/17 07:50:14;;;;;;;81.70;41.57;;;7.50;99.90;;;;;;5034592;28;20264;-71
2022/01/17 07:52:41;;;;;;;72.37;40.43;;;7.50;99.90;;;;;;5033545;28;20181;-71
2022/01/17 07:55:07;;;;;;;77.53;40.77;;;7.50;99.90;;;;;;5033357;28;20174;-71
2022/01/17 07:57:32;;;;;;;69.20;39.87;;;7.50;99.90;;;;;;5034516;28;20184;-72
2022/01/17 07:59:58;;;;;;;70.80;37.57;;;7.40;99.90;;;;;;5033783;28;20174;-71
2022/01/17 08:02:23;;;;;;;62.60;35.90;;;7.40;99.90;;;;;;5034102;28;20233;-70
2022/01/17 08:04:49;;;;;;;67.70;36.87;;;7.50;99.90;;;;;;5034119;28;20319;-71
2022/01/17 08:07:15;;;;;;;62.83;34.63;;;7.50;99.90;;;;;;5033517;28;20182;-71
2022/01/17 08:09:41;;;;;;;60.17;34.17;;;7.60;99.90;;;;;;5034113;28;20173;-71
2022/01/17 08:12:08;;;;;;;54.50;32.57;;;7.70;99.90;;;;;;5032488;28;20185;-71
2022/01/17 08:14:34;;;;;;;57.07;33.07;;;7.60;99.90;;;;;;5034008;28;20180;-71
2022/01/17 08:17:00;;;;;;;54.80;30.97;;;7.60;99.90;;;;;;5032655;28;20214;-71
2022/01/17 08:19:26;;;;;;;58.17;31.27;;;7.70;99.90;;;;;;5033537;28;20202;-71
2022/01/17 08:21:52;;;;;;;51.60;29.87;;;7.70;99.90;;;;;;5033331;28;20182;-70
2022/01/17 08:24:21;;;;;;;53.27;27.57;;;7.70;99.90;;;;;;5033758;28;20220;-71
2022/01/17 08:26:47;;;;;;;44.70;26.57;;;7.70;99.90;;;;;;5033383;28;20217;-71
2022/01/17 08:29:13;;;;;;;43.60;24.73;;;7.80;99.90;;;;;;5033596;28;20178;-70
2022/01/17 08:31:42;;;;;;;44.20;25.33;;;7.70;99.90;;;;;;5034048;28;20182;-71
2022/01/17 08:34:09;;;;;;;37.10;23.90;;;7.80;99.90;;;;;;5033287;28;20652;-71
2022/01/17 08:36:35;;;;;;;45.43;24.27;;;7.80;99.90;;;;;;5033584;28;20174;-70
2022/01/17 08:39:01;;;;;;;39.93;22.93;;;7.90;99.90;;;;;;5032232;28;20292;-71
2022/01/17 08:41:26;;;;;;;41.30;24.47;;;8.00;99.90;;;;;;5033077;28;20173;-71
2022/01/17 08:43:52;;;;;;;42.33;24.87;;;8.00;99.90;;;;;;5033507;28;20205;-70
2022/01/17 08:46:18;;;;;;;42.77;24.77;;;8.20;99.90;;;;;;5033628;28;20166;-70
2022/01/17 08:48:43;;;;;;;46.67;25.23;;;8.20;99.90;;;;;;5033652;28;20534;-70
2022/01/17 08:51:09;;;;;;;47.23;24.77;;;8.10;99.90;;;;;;5032851;28;20313;-69
2022/01/17 08:53:35;;;;;;;44.30;26.53;;;7.90;99.90;;;;;;5032943;28;20180;-70
2022/01/17 08:56:03;;;;;;;46.77;27.27;;;8.00;99.90;;;;;;5032938;28;20178;-71
2022/01/17 08:58:29;;;;;;;47.83;27.27;;;8.00;99.90;;;;;;5032712;28;20170;-70
2022/01/17 09:00:56;;;;;;;39.77;24.83;;;8.00;99.90;;;;;;5033235;28;20174;-71
2022/01/17 09:03:23;;;;;;;46.73;26.77;;;8.00;99.90;;;;;;5033109;28;20205;-70
2022/01/17 09:05:50;;;;;;;51.57;24.83;;;8.10;99.90;;;;;;5032929;28;20202;-69
2022/01/17 09:08:16;;;;;;;42.97;25.63;;;8.20;99.90;;;;;;5032867;28;20186;-70
2022/01/17 09:10:42;;;;;;;42.33;24.40;;;8.30;99.90;;;;;;5032891;28;20253;-69
2022/01/17 09:13:08;;;;;;;44.57;24.47;;;8.20;99.90;;;;;;5032750;28;20714;-70
2022/01/17 09:15:35;;;;;;;45.87;25.40;;;8.20;99.90;;;;;;5032758;28;20257;-71
2022/01/17 09:18:01;;;;;;;44.70;24.23;;;8.20;99.90;;;;;;5033295;28;20193;-70
2022/01/17 09:20:26;;;;;;;46.77;23.93;;;8.30;99.90;;;;;;5031712;28;20182;-71
2022/01/17 09:22:52;;;;;;;41.37;24.10;;;8.30;99.90;;;;;;5032913;28;20233;-70
2022/01/17 09:25:18;;;;;;;41.30;23.30;;;8.20;99.90;;;;;;5032743;28;20243;-71
2022/01/17 09:27:43;;;;;;;42.50;23.60;;;8.10;99.90;;;;;;5032258;28;20226;-70
2022/01/17 09:30:15;;;;;;;43.80;21.90;;;8.20;99.90;;;;;;5032638;28;20174;-70
2022/01/17 09:32:41;;;;;;;46.57;22.87;;;8.20;99.90;;;;;;5032328;28;20305;-70
2022/01/17 09:35:09;;;;;;;46.37;23.10;;;8.10;99.90;;;;;;5032578;28;20197;-70
2022/01/17 09:37:35;;;;;;;46.57;24.43;;;7.90;99.90;;;;;;5032963;28;20181;-70
2022/01/17 09:40:01;;;;;;;203.87;137.83;;;8.00;99.90;;;;;;5032879;28;20537;-69
2022/01/17 09:42:27;;;;;;;79.57;48.17;;;8.10;99.90;;;;;;5031964;28;20683;-70
2022/01/17 09:44:52;;;;;;;57.30;32.57;;;8.20;99.90;;;;;;5032633;28;20166;-69
2022/01/17 09:47:19;;;;;;;45.93;23.37;;;8.40;99.90;;;;;;5032485;28;20658;-70
2022/01/17 09:50:19;;;;;;;43.97;21.90;;;8.60;99.90;;;;;;5031727;28;20180;-71
2022/01/17 09:52:43;;;;;;;49.93;34.50;;;8.50;99.90;;;;;;5032091;28;20529;-70
2022/01/17 09:55:15;;;;;;;44.43;20.77;;;8.70;99.90;;;;;;5032648;28;20174;-70
2022/01/17 09:57:48;;;;;;;33.37;18.20;;;8.80;99.90;;;;;;5032016;28;20245;-71
2022/01/17 10:00:16;;;;;;;29.50;17.30;;;9.10;99.90;;;;;;5032033;28;20184;-71
2022/01/17 10:02:42;;;;;;;29.83;17.10;;;9.40;99.90;;;;;;5032309;28;20680;-72
2022/01/17 10:05:08;;;;;;;39.77;18.77;;;9.60;99.90;;;;;;5032476;28;20254;-71
2022/01/17 10:07:52;;;;;;;38.10;19.83;;;9.70;99.90;;;;;;5032174;28;20177;-71
2022/01/17 10:10:32;;;;;;;32.07;15.57;;;9.80;99.90;;;;;;5032246;28;20170;-71
2022/01/17 10:13:05;;;;;;;34.97;14.77;;;9.50;99.90;;;;;;5031896;28;20245;-71
2022/01/17 10:15:43;;;;;;;31.30;13.90;;;9.10;99.90;;;;;;5031193;28;20567;-71
2022/01/17 10:18:28;;;;;;;27.70;15.30;;;9.10;99.90;;;;;;5035757;28;20177;-71
2022/01/17 10:20:59;;;;;;;32.17;13.80;;;9.20;99.90;;;;;;5035812;28;20173;-71
2022/01/17 10:24:12;;;;;;;28.20;14.67;;;9.10;99.90;;;;;;5036279;28;20304;-71
2022/01/17 10:34:54;;;;;;;29.17;14.57;;;9.10;99.90;;;;;;5036132;28;20180;-72
2022/01/17 10:37:26;;;;;;;27.97;14.77;;;9.20;99.90;;;;;;5036052;28;20182;-71
2022/01/17 10:40:02;;;;;;;28.47;13.93;;;9.20;99.90;;;;;;5035608;28;20173;-71
2022/01/17 10:42:42;;;;;;;28.50;15.00;;;9.20;99.90;;;;;;5035542;28;20204;-71
2022/01/17 10:45:14;;;;;;;28.43;13.83;;;9.30;99.90;;;;;;5017439;28;20178;-71
2022/01/17 10:47:43;;;;;;;31.50;14.10;;;9.20;99.90;;;;;;5034179;28;20189;-71
2022/01/17 10:50:18;;;;;;;25.50;13.03;;;9.30;99.90;;;;;;5035085;28;20559;-70
2022/01/17 10:52:47;;;;;;;26.27;14.07;;;9.30;99.90;;;;;;5032485;28;20173;-71
2022/01/17 10:55:26;;;;;;;35.20;12.40;;;9.30;99.90;;;;;;5033952;28;20200;-70
2022/01/17 10:57:57;;;;;;;28.33;12.70;;;9.40;99.90;;;;;;5033934;28;20205;-70
2022/01/17 11:00:27;;;;;;;26.53;12.83;;;9.30;99.90;;;;;;5033585;28;20166;-71
2022/01/17 11:03:01;;;;;;;24.13;12.43;;;9.30;99.90;;;;;;5035147;28;20201;-71
2022/01/17 11:05:28;;;;;;;24.47;12.20;;;9.40;99.90;;;;;;5035339;28;20192;-72
2022/01/17 11:07:56;;;;;;;23.67;11.40;;;9.50;99.90;;;;;;5034316;28;20177;-72
2022/01/17 11:10:26;;;;;;;25.47;12.00;;;9.50;99.90;;;;;;5034551;28;20257;-71
2022/01/17 11:12:54;;;;;;;26.37;13.03;;;9.60;99.90;;;;;;5034214;28;20621;-71
2022/01/17 11:15:22;;;;;;;24.77;11.10;;;9.50;99.90;;;;;;5033619;28;20174;-72
2022/01/17 11:17:51;;;;;;;26.87;10.97;;;9.80;99.90;;;;;;5034416;28;20170;-71
2022/01/17 11:20:20;;;;;;;24.93;11.10;;;10.00;99.90;;;;;;5032830;28;20170;-71
2022/01/17 11:22:48;;;;;;;23.63;10.37;;;9.80;99.90;;;;;;5033639;28;20642;-71
2022/01/17 11:25:35;;;;;;;25.67;12.30;;;9.60;99.90;;;;;;5033294;28;20227;-71
2022/01/17 11:28:03;;;;;;;25.13;11.27;;;9.70;99.90;;;;;;5033483;28;20182;-71
2022/01/17 11:30:29;;;;;;;23.83;11.00;;;9.80;99.90;;;;;;5034316;28;20174;-71
2022/01/17 11:32:57;;;;;;;23.40;10.37;;;10.00;99.90;;;;;;5033926;28;20673;-71
2022/01/17 11:35:24;;;;;;;22.67;10.03;;;10.20;99.90;;;;;;5034477;28;20212;-72
2022/01/17 11:37:55;;;;;;;20.70;9.73;;;10.30;99.90;;;;;;5034233;28;20182;-71
2022/01/17 11:40:27;;;;;;;24.00;10.33;;;10.50;99.90;;;;;;5033981;28;20166;-71
2022/01/17 11:42:53;;;;;;;19.50;10.80;;;10.40;99.90;;;;;;5033699;28;20267;-70
2022/01/17 11:45:22;;;;;;;26.47;10.87;;;10.30;99.90;;;;;;5033709;28;20166;-70
2022/01/17 11:47:58;;;;;;;25.20;15.80;;;10.30;99.90;;;;;;5033803;28;20214;-71
2022/01/17 11:52:57;;;;;;;23.97;10.23;;;10.30;99.90;;;;;;5032799;28;20182;-70
2022/01/17 11:58:30;;;;;;;25.13;12.67;;;10.40;99.90;;;;;;5033754;28;20188;-70
2022/01/17 12:01:01;;;;;;;19.03;10.07;;;10.40;99.90;;;;;;5033424;28;20178;-70
2022/01/17 12:03:28;;;;;;;19.10;10.33;;;10.30;99.90;;;;;;5034112;28;20202;-70
2022/01/17 12:05:55;;;;;;;22.23;9.83;;;10.40;99.90;;;;;;5033756;28;20162;-70
2022/01/17 12:08:24;;;;;;;19.20;9.53;;;10.80;99.90;;;;;;5034000;28;20185;-71
2022/01/17 12:10:57;;;;;;;22.23;9.10;;;10.90;99.90;;;;;;5034476;28;20265;-73
2022/01/17 12:13:35;;;;;;;19.37;10.33;;;11.20;99.90;;;;;;5034630;28;20249;-71
2022/01/17 12:16:21;;;;;;;21.00;10.07;;;11.30;99.90;;;;;;5034213;28;20201;-71
2022/01/17 12:18:50;;;;;;;20.47;9.83;;;11.80;99.90;;;;;;5034454;28;20232;-71
2022/01/17 12:21:31;;;;;;;20.43;9.50;;;11.90;99.90;;;;;;5033546;28;20178;-71
2022/01/17 12:24:14;;;;;;;21.57;9.23;;;11.90;99.90;;;;;;5033683;28;20280;-71
2022/01/17 12:26:41;;;;;;;19.43;8.93;;;11.80;99.90;;;;;;5034104;28;20218;-71
2022/01/17 12:29:06;;;;;;;26.70;9.80;;;11.60;99.90;;;;;;5033916;28;20216;-72
2022/01/17 12:31:38;;;;;;;21.20;9.90;;;11.20;99.90;;;;;;5033612;28;20576;-71
2022/01/17 12:34:14;;;;;;;20.53;9.17;;;11.40;99.90;;;;;;5033763;28;20193;-72
2022/01/17 12:36:41;;;;;;;17.00;9.17;;;11.30;99.90;;;;;;5033555;28;20573;-71
2022/01/17 12:39:28;;;;;;;17.83;9.30;;;11.50;99.90;;;;;;5033487;28;20607;-71
2022/01/17 12:42:00;;;;;;;22.57;9.87;;;11.90;99.90;;;;;;5032840;28;20243;-71
2022/01/17 12:44:29;;;;;;;18.27;8.77;;;12.00;99.90;;;;;;5034077;28;20213;-71
2022/01/17 12:46:58;;;;;;;23.63;9.50;;;12.00;99.90;;;;;;5033001;28;20200;-71
2022/01/17 12:49:24;;;;;;;20.63;9.53;;;11.90;99.90;;;;;;5033589;28;20172;-70
2022/01/17 12:51:54;;;;;;;19.83;10.03;;;11.60;99.90;;;;;;5032877;28;20173;-70
2022/01/17 12:54:25;;;;;;;17.63;9.10;;;11.50;99.90;;;;;;5033496;28;20229;-70
2022/01/17 12:56:53;;;;;;;20.00;9.30;;;10.90;99.90;;;;;;5033178;28;20181;-70
2022/01/17 12:59:20;;;;;;;24.27;12.23;;;10.80;99.90;;;;;;5033383;28;20246;-70
2022/01/17 13:01:51;;;;;;;24.07;10.30;;;10.70;99.90;;;;;;5032144;28;20169;-71
2022/01/17 13:04:18;;;;;;;26.20;10.40;;;10.80;99.90;;;;;;5033338;28;20213;-71
2022/01/17 13:06:46;;;;;;;23.00;9.20;;;10.70;99.90;;;;;;5032939;28;20664;-71
2022/01/17 13:09:20;;;;;;;31.67;15.50;;;10.70;99.90;;;;;;5032749;28;20253;-71
2022/01/17 13:11:46;;;;;;;31.90;11.33;;;10.60;99.90;;;;;;5033318;28;20174;-70
2022/01/17 13:14:18;;;;;;;26.10;10.33;;;10.60;99.90;;;;;;5032624;28;20284;-71
2022/01/17 13:16:48;;;;;;;21.00;9.97;;;10.60;99.90;;;;;;5031066;28;20213;-70